Time;durP1;ratioP1;P1;durP2;ratioP2;P2;SDS_P1;SDS_P2;PMS_P1;PMS_P2;Temp;Humidity;BMP_temperature;BMP_pressure;BME280_temperature;BME280_humidity;BME280_pressure;Samples;Min_cycle;Max_cycle;Signal;HPM_P1;HPM_P2
2022/08/08 02:47:55;;;;;;;2.40;1.30;;;16.50;99.90;;;;;;5194526;23;89088;-78
2022/08/08 02:50:30;;;;;;;1.90;1.23;;;16.50;99.90;;;;;;4822241;29;87148;-78
2022/08/08 02:53:14;;;;;;;2.50;1.20;;;16.40;99.90;;;;;;4825457;29;86928;-79
2022/08/08 02:56:26;;;;;;;3.25;1.65;;;16.40;99.90;;;;;;4819711;29;87029;-80
2022/08/08 02:59:25;;;;;;;2.65;1.30;;;16.40;99.90;;;;;;4815658;29;87035;-79
2022/08/08 03:01:58;;;;;;;3.47;1.30;;;16.30;99.90;;;;;;4824136;29;86717;-78
2022/08/08 03:04:56;;;;;;;4.75;1.70;;;16.40;99.90;;;;;;4826001;29;87049;-79
2022/08/08 03:08:03;;;;;;;2.75;1.65;;;16.30;99.90;;;;;;4818043;29;87077;-78
2022/08/08 03:10:56;;;;;;;3.22;1.42;;;16.30;99.90;;;;;;4822268;29;88540;-79
2022/08/08 03:13:46;;;;;;;3.33;1.65;;;16.30;99.90;;;;;;4824793;29;87414;-79
2022/08/08 03:16:24;;;;;;;3.50;1.30;;;16.10;99.90;;;;;;4824758;29;86956;-81
2022/08/08 03:18:52;;;;;;;3.33;1.52;;;16.10;99.90;;;;;;4825334;29;87066;-79
2022/08/08 03:21:18;;;;;;;2.42;1.50;;;16.00;99.90;;;;;;4824967;29;87409;-79
2022/08/08 03:23:44;;;;;;;3.33;1.83;;;16.10;99.90;;;;;;4825717;29;87086;-78
2022/08/08 03:26:09;;;;;;;3.15;1.85;;;16.00;99.90;;;;;;4819615;29;87188;-79
2022/08/08 03:28:42;;;;;;;3.92;2.08;;;16.00;99.90;;;;;;4824044;29;86214;-79
2022/08/08 03:33:53;;;;;;;4.78;1.63;;;15.90;99.90;;;;;;4822072;29;87184;-79
2022/08/08 03:36:19;;;;;;;3.08;1.70;;;15.80;99.90;;;;;;4816931;29;88804;-79
2022/08/08 03:38:52;;;;;;;3.83;1.30;;;15.80;99.90;;;;;;4825653;29;87243;-79
2022/08/08 03:41:18;;;;;;;3.35;1.40;;;15.80;99.90;;;;;;4824609;29;87751;-79
2022/08/08 03:43:56;;;;;;;2.90;1.08;;;15.90;99.90;;;;;;4822873;29;86808;-79
2022/08/08 03:46:22;;;;;;;4.55;1.55;;;15.90;99.90;;;;;;4824118;29;87401;-79
2022/08/08 03:49:00;;;;;;;3.95;1.58;;;15.90;99.90;;;;;;4825390;29;87013;-79
2022/08/08 03:51:27;;;;;;;5.25;1.60;;;15.90;99.90;;;;;;4822243;29;87262;-79
2022/08/08 03:53:53;;;;;;;6.57;1.73;;;15.90;99.90;;;;;;4816462;29;87782;-78
2022/08/08 03:56:21;;;;;;;2.97;1.40;;;15.90;99.90;;;;;;4823009;29;86914;-78
2022/08/08 03:58:51;;;;;;;3.70;1.60;;;15.90;99.90;;;;;;4825096;29;86920;-78
2022/08/08 04:01:18;;;;;;;6.47;1.73;;;15.90;99.90;;;;;;4822979;29;88419;-79
2022/08/08 04:03:46;;;;;;;3.55;1.90;;;15.90;99.90;;;;;;4819034;29;87945;-78
2022/08/08 04:06:13;;;;;;;4.55;1.60;;;15.90;99.90;;;;;;4819966;29;87014;-78
2022/08/08 04:08:39;;;;;;;5.45;1.58;;;15.80;99.90;;;;;;4824261;29;86914;-78
2022/08/08 04:11:06;;;;;;;2.58;1.73;;;15.80;99.90;;;;;;4823570;29;86762;-78
2022/08/08 04:13:31;;;;;;;3.10;1.48;;;15.90;99.90;;;;;;4822466;29;87090;-79
2022/08/08 04:15:57;;;;;;;5.20;1.73;;;15.80;99.90;;;;;;4826768;29;87035;-78
2022/08/08 04:18:23;;;;;;;2.33;1.45;;;15.90;99.90;;;;;;4826564;29;86461;-78
2022/08/08 04:20:49;;;;;;;3.47;1.50;;;15.80;99.90;;;;;;4823301;29;87152;-79
2022/08/08 04:23:14;;;;;;;6.55;1.80;;;15.80;99.90;;;;;;4827301;29;87069;-77
2022/08/08 04:25:41;;;;;;;3.42;1.63;;;15.90;99.90;;;;;;4823800;29;88046;-77
2022/08/08 04:28:07;;;;;;;2.85;1.35;;;16.00;99.90;;;;;;4826806;29;86256;-77
2022/08/08 04:30:34;;;;;;;4.88;1.48;;;16.10;99.90;;;;;;4826934;29;88188;-77
2022/08/08 04:32:59;;;;;;;2.22;1.25;;;16.20;99.90;;;;;;4826093;29;88121;-79
2022/08/08 04:35:25;;;;;;;3.65;1.38;;;16.30;99.90;;;;;;4824521;29;87087;-77
2022/08/08 04:37:53;;;;;;;3.78;1.83;;;16.30;99.90;;;;;;4825390;29;87135;-77
2022/08/08 04:40:19;;;;;;;3.13;1.33;;;16.30;99.90;;;;;;4826416;29;87406;-77
2022/08/08 04:42:46;;;;;;;2.53;1.50;;;16.40;99.90;;;;;;4827379;29;87332;-77
2022/08/08 04:45:12;;;;;;;3.88;1.73;;;16.50;99.90;;;;;;4826596;29;87029;-78
2022/08/08 04:47:37;;;;;;;3.33;1.75;;;16.60;99.90;;;;;;4826179;29;87160;-77
2022/08/08 04:50:04;;;;;;;3.72;1.92;;;16.70;99.90;;;;;;4825710;29;87963;-77
2022/08/08 04:52:30;;;;;;;3.63;1.70;;;16.80;99.90;;;;;;4826985;29;88183;-77
2022/08/08 04:54:55;;;;;;;3.38;1.67;;;16.80;99.90;;;;;;4826876;29;87454;-78
2022/08/08 04:57:21;;;;;;;3.35;1.75;;;16.70;99.90;;;;;;4827125;29;87150;-79
2022/08/08 04:59:47;;;;;;;4.53;1.55;;;16.70;99.90;;;;;;4827352;29;87325;-78
2022/08/08 05:02:13;;;;;;;3.42;1.85;;;16.70;99.90;;;;;;4824510;29;87091;-78
2022/08/08 05:04:39;;;;;;;3.03;1.63;;;16.80;99.90;;;;;;4825451;29;86993;-78
2022/08/08 05:07:04;;;;;;;3.00;1.23;;;16.80;99.90;;;;;;4827044;29;86787;-78
2022/08/08 05:09:30;;;;;;;5.40;1.80;;;16.90;99.90;;;;;;4826180;29;87634;-78
2022/08/08 05:11:56;;;;;;;3.00;1.73;;;17.00;99.90;;;;;;4825702;29;87431;-78
2022/08/08 05:14:22;;;;;;;3.70;1.40;;;17.00;99.90;;;;;;4825408;29;88297;-79
2022/08/08 05:16:48;;;;;;;3.65;1.88;;;17.10;99.90;;;;;;4825407;29;87052;-80
2022/08/08 05:19:14;;;;;;;3.65;2.08;;;17.20;99.90;;;;;;4826827;29;87264;-80
2022/08/08 05:21:41;;;;;;;5.10;1.80;;;17.20;99.90;;;;;;4826308;29;87386;-78
2022/08/08 05:24:07;;;;;;;2.83;1.50;;;17.30;99.90;;;;;;4826660;29;87513;-78
2022/08/08 05:26:34;;;;;;;4.32;1.90;;;17.60;99.90;;;;;;4822715;29;87006;-77
2022/08/08 05:29:02;;;;;;;5.53;1.90;;;17.70;99.90;;;;;;4824423;29;87020;-77
2022/08/08 05:31:31;;;;;;;3.20;1.52;;;17.90;99.90;;;;;;4826279;29;86952;-79
2022/08/08 05:33:58;;;;;;;3.15;2.22;;;18.10;99.90;;;;;;4826496;29;87536;-77
2022/08/08 05:36:25;;;;;;;6.55;3.40;;;18.30;99.90;;;;;;4823241;29;87500;-77
2022/08/08 05:38:52;;;;;;;5.85;2.13;;;18.50;99.90;;;;;;4825548;29;87898;-77
2022/08/08 05:41:22;;;;;;;5.43;2.03;;;18.60;99.90;;;;;;4826383;29;87128;-78
2022/08/08 05:43:48;;;;;;;6.47;1.85;;;18.70;99.90;;;;;;4823468;29;87307;-79
2022/08/08 05:46:15;;;;;;;5.03;2.20;;;18.90;99.90;;;;;;4823019;29;87164;-80
2022/08/08 05:48:42;;;;;;;5.50;1.70;;;19.00;99.90;;;;;;4827163;29;87353;-80
2022/08/08 05:51:09;;;;;;;3.72;1.95;;;19.10;99.90;;;;;;4828244;29;87049;-79
2022/08/08 05:53:34;;;;;;;6.40;1.60;;;19.00;99.90;;;;;;4827341;29;87077;-80
2022/08/08 05:56:01;;;;;;;4.97;2.22;;;19.20;99.90;;;;;;4824740;29;86413;-80
2022/08/08 05:58:29;;;;;;;3.22;2.03;;;19.50;99.90;;;;;;4828337;29;87370;-78
2022/08/08 06:00:59;;;;;;;5.93;2.00;;;19.80;99.90;;;;;;4826437;29;87495;-79
2022/08/08 06:03:26;;;;;;;4.25;1.83;;;20.20;99.90;;;;;;4826397;29;88040;-80
2022/08/08 06:06:06;;;;;;;4.10;2.15;;;20.40;98.20;;;;;;4825663;29;87080;-80
2022/08/08 06:08:51;;;;;;;8.68;1.92;;;20.70;96.70;;;;;;4822187;29;88168;-83
2022/08/08 06:11:18;;;;;;;3.53;1.63;;;20.90;95.80;;;;;;4824337;29;87604;-81
2022/08/08 06:13:46;;;;;;;2.65;1.40;;;21.20;95.10;;;;;;4827292;29;87197;-78
2022/08/08 06:16:12;;;;;;;5.55;1.90;;;21.40;94.50;;;;;;4829616;29;87075;-77
2022/08/08 06:18:40;;;;;;;3.85;1.40;;;21.70;93.90;;;;;;4837010;29;88218;-78
2022/08/08 06:21:08;;;;;;;3.95;2.17;;;22.00;92.10;;;;;;4832062;29;87339;-78
2022/08/08 06:23:34;;;;;;;4.18;1.92;;;22.00;91.10;;;;;;4829889;29;87139;-78
2022/08/08 06:26:05;;;;;;;5.50;1.80;;;22.00;90.90;;;;;;4829464;29;87230;-78
2022/08/08 06:28:53;;;;;;;16.45;2.20;;;22.00;90.00;;;;;;4827787;29;88664;-78
2022/08/08 06:31:22;;;;;;;3.15;1.85;;;22.30;90.00;;;;;;4828687;29;88964;-78
2022/08/08 06:34:00;;;;;;;4.60;1.83;;;23.70;89.50;;;;;;4828745;29;86975;-78
2022/08/08 06:36:49;;;;;;;3.63;1.65;;;24.90;84.20;;;;;;4830528;29;86947;-79
2022/08/08 06:39:15;;;;;;;2.38;1.73;;;25.70;76.90;;;;;;4829560;29;88141;-78
2022/08/08 06:41:48;;;;;;;3.47;1.52;;;26.10;72.80;;;;;;4829135;29;87261;-78
2022/08/08 06:44:16;;;;;;;3.40;1.52;;;25.80;73.30;;;;;;4819937;29;87257;-78
2022/08/08 06:46:43;;;;;;;3.90;1.77;;;25.50;74.50;;;;;;4829580;29;86269;-78
2022/08/08 06:49:12;;;;;;;3.17;1.98;;;25.70;73.40;;;;;;4829714;29;88487;-81
2022/08/08 06:51:38;;;;;;;2.60;1.50;;;26.20;72.80;;;;;;4829612;29;87183;-82
2022/08/08 06:54:04;;;;;;;3.70;2.08;;;28.10;70.70;;;;;;4824399;29;87963;-80
2022/08/08 06:56:30;;;;;;;4.72;2.17;;;28.70;65.20;;;;;;4830805;29;86933;-79
2022/08/08 06:58:56;;;;;;;3.10;1.90;;;28.60;64.00;;;;;;4830368;29;87864;-79
2022/08/08 07:01:28;;;;;;;4.03;2.17;;;28.30;63.60;;;;;;4828991;29;87309;-79
2022/08/08 07:04:03;;;;;;;3.60;1.60;;;28.30;64.70;;;;;;4829349;29;86891;-79
2022/08/08 07:06:32;;;;;;;4.10;1.85;;;29.10;65.30;;;;;;4829618;29;86836;-79
2022/08/08 07:09:10;;;;;;;2.47;1.73;;;29.50;61.70;;;;;;4828585;29;87346;-79
2022/08/08 07:11:41;;;;;;;2.20;1.50;;;29.60;61.20;;;;;;4831336;29;86393;-79
2022/08/08 07:14:10;;;;;;;2.55;1.88;;;29.90;59.70;;;;;;4836650;29;87157;-80
2022/08/08 07:17:11;;;;;;;2.47;1.85;;;31.30;58.00;;;;;;4835428;29;88483;-79
2022/08/08 07:19:46;;;;;;;2.30;1.40;;;30.90;58.70;;;;;;4757340;29;88098;-78
2022/08/08 07:22:17;;;;;;;4.25;2.70;;;31.20;58.30;;;;;;4817487;29;89521;-81
2022/08/08 07:24:53;;;;;;;3.58;2.08;;;31.70;55.40;;;;;;4831350;29;87085;-81
2022/08/08 07:27:23;;;;;;;5.47;2.10;;;31.10;56.30;;;;;;4838127;29;87533;-79
2022/08/08 07:29:50;;;;;;;2.83;1.92;;;29.30;58.50;;;;;;4830978;29;87094;-82
2022/08/08 07:32:17;;;;;;;3.20;1.55;;;29.80;59.60;;;;;;4828275;29;87359;-78
2022/08/08 07:34:43;;;;;;;3.22;2.00;;;30.50;56.50;;;;;;4829908;29;87331;-78
2022/08/08 07:37:11;;;;;;;2.65;1.92;;;32.60;55.90;;;;;;4838493;29;86107;-81
2022/08/08 07:39:41;;;;;;;3.13;2.30;;;35.30;51.70;;;;;;4830767;29;87054;-80
2022/08/08 07:42:12;;;;;;;3.55;1.83;;;36.60;50.50;;;;;;4838866;29;86976;-82
2022/08/08 07:44:40;;;;;;;3.13;2.00;;;38.10;45.70;;;;;;4824294;29;88050;-86
2022/08/08 07:47:06;;;;;;;2.70;2.40;;;38.80;44.80;;;;;;4836850;29;87330;-80
2022/08/08 07:49:32;;;;;;;2.83;2.28;;;38.90;45.80;;;;;;4830924;29;88190;-80
2022/08/08 07:51:59;;;;;;;3.22;2.78;;;39.70;43.50;;;;;;4831831;29;86503;-80
2022/08/08 07:54:38;;;;;;;3.13;2.50;;;39.30;43.10;;;;;;4832060;29;86697;-80
2022/08/08 07:57:15;;;;;;;3.42;2.97;;;38.40;44.70;;;;;;4836575;29;86679;-79
2022/08/08 08:00:03;;;;;;;4.13;2.70;;;39.90;43.30;;;;;;4839873;29;87964;-81
2022/08/08 08:02:59;;;;;;;3.67;3.38;;;41.70;40.20;;;;;;4839236;29;86859;-81
2022/08/08 08:05:26;;;;;;;4.00;3.15;;;42.60;38.60;;;;;;4821216;29;86619;-81
2022/08/08 08:08:03;;;;;;;3.45;2.90;;;43.00;38.20;;;;;;4837937;29;87019;-80
2022/08/08 08:10:30;;;;;;;5.97;3.78;;;43.80;37.00;;;;;;4835180;29;88374;-83
2022/08/08 08:13:20;;;;;;;4.13;3.42;;;41.80;39.40;;;;;;4832106;29;88811;-82
2022/08/08 08:15:54;;;;;;;4.82;4.40;;;41.30;39.50;;;;;;4832589;29;87208;-81
2022/08/08 08:18:22;;;;;;;4.47;4.07;;;40.30;40.00;;;;;;4834188;29;86958;-81
2022/08/08 08:20:51;;;;;;;3.33;3.03;;;38.20;42.50;;;;;;4835038;29;87105;-82
2022/08/08 08:23:17;;;;;;;3.00;2.45;;;37.50;42.60;;;;;;4834753;29;87582;-80
2022/08/08 08:25:42;;;;;;;4.88;2.40;;;39.10;42.30;;;;;;4835770;29;87070;-80
2022/08/08 08:28:08;;;;;;;4.57;3.13;;;40.50;41.10;;;;;;4834510;29;86122;-80
2022/08/08 08:30:34;;;;;;;6.28;3.38;;;40.20;40.80;;;;;;4845729;29;88822;-82
2022/08/08 08:33:00;;;;;;;3.95;3.35;;;41.40;40.20;;;;;;4834623;29;86939;-81
2022/08/08 08:35:25;;;;;;;4.00;3.58;;;43.00;38.80;;;;;;4839240;29;87884;-82
2022/08/08 08:37:51;;;;;;;3.88;3.47;;;43.90;36.80;;;;;;4834033;29;86996;-86
2022/08/08 08:40:18;;;;;;;5.50;3.95;;;44.40;36.20;;;;;;4844119;29;87159;-83
2022/08/08 08:42:46;;;;;;;4.40;4.00;;;45.80;35.90;;;;;;4841891;29;86987;-82
2022/08/08 08:45:11;;;;;;;;;;;44.90;34.60;;;;;;4837833;29;87049;-82
2022/08/08 08:47:38;;;;;;;5.00;4.50;;;44.10;37.20;;;;;;4834896;29;86865;-81
2022/08/08 08:50:04;;;;;;;3.75;3.28;;;42.70;37.50;;;;;;4834104;29;87126;-82
2022/08/08 08:52:30;;;;;;;4.70;3.92;;;42.30;37.70;;;;;;4833747;29;86828;-82
2022/08/08 08:54:58;;;;;;;4.82;4.30;;;42.80;38.10;;;;;;4833534;29;86869;-82
2022/08/08 08:57:25;;;;;;;3.97;3.38;;;44.20;35.60;;;;;;4833326;29;87159;-82
2022/08/08 08:59:55;;;;;;;4.65;3.95;;;43.90;36.40;;;;;;4831574;29;88195;-81
2022/08/08 09:02:23;;;;;;;4.60;4.05;;;44.20;36.40;;;;;;4833320;29;88846;-84
2022/08/08 09:04:54;;;;;;;4.43;4.03;;;44.10;36.10;;;;;;4835865;29;86742;-82
2022/08/08 09:07:23;;;;;;;4.60;4.18;;;45.10;35.40;;;;;;4836696;29;87440;-82
2022/08/08 09:09:51;;;;;;;4.57;4.18;;;45.30;33.90;;;;;;4835829;29;87034;-81
2022/08/08 09:12:19;;;;;;;4.60;4.18;;;45.30;35.20;;;;;;4836415;29;87752;-82
2022/08/08 09:14:47;;;;;;;7.03;5.45;;;47.20;33.50;;;;;;4837742;29;86731;-84
2022/08/08 09:17:13;;;;;;;4.32;3.28;;;48.00;32.10;;;;;;4835051;29;86467;-84
2022/08/08 09:19:40;;;;;;;5.03;4.53;;;47.10;33.20;;;;;;4835712;29;87550;-82
2022/08/08 09:22:07;;;;;;;5.15;4.68;;;46.20;33.60;;;;;;4836771;29;87779;-83
2022/08/08 09:24:37;;;;;;;5.22;4.72;;;46.10;33.50;;;;;;4842259;29;87905;-83
2022/08/08 09:27:07;;;;;;;6.57;5.97;;;46.40;34.40;;;;;;4842335;29;86817;-82
2022/08/08 09:29:44;;;;;;;4.20;3.90;;;48.00;32.40;;;;;;4843107;29;87049;-82
2022/08/08 09:32:46;;;;;;;5.40;4.28;;;47.60;31.20;;;;;;4843648;29;87029;-82
2022/08/08 09:35:14;;;;;;;7.40;6.07;;;47.70;32.40;;;;;;4830648;29;87143;-83
2022/08/08 09:37:49;;;;;;;5.55;5.10;;;48.60;32.00;;;;;;4835637;29;86942;-82
2022/08/08 09:40:15;;;;;;;;;;;49.70;30.90;;;;;;4834996;29;86876;-82
2022/08/08 09:42:49;;;;;;;6.57;6.07;;;47.40;31.70;;;;;;4836754;29;87525;-84
2022/08/08 09:45:25;;;;;;;4.95;4.55;;;47.70;32.10;;;;;;4835819;29;87002;-84
2022/08/08 09:47:52;;;;;;;5.07;4.65;;;48.80;31.40;;;;;;4835626;29;86528;-90
2022/08/08 09:50:22;;;;;;;5.60;5.10;;;49.70;30.90;;;;;;4834144;29;88176;-84
2022/08/08 09:52:49;;;;;;;8.80;5.20;;;50.10;29.80;;;;;;4832209;29;89511;-83
2022/08/08 09:55:16;;;;;;;5.10;4.70;;;47.80;30.80;;;;;;4834514;29;86961;-84
2022/08/08 09:57:46;;;;;;;4.65;4.28;;;46.80;31.80;;;;;;4832174;29;87051;-84
2022/08/08 10:00:14;;;;;;;5.82;5.30;;;47.00;32.20;;;;;;4844456;29;88518;-85
2022/08/08 10:02:43;;;;;;;;;;;47.30;31.00;;;;;;4848081;29;87273;-84
2022/08/08 10:05:16;;;;;;;4.82;4.40;;;46.90;32.30;;;;;;4836439;29;87016;-84
2022/08/08 10:07:51;;;;;;;5.68;5.18;;;47.00;31.10;;;;;;4834766;29;86521;-82
2022/08/08 10:10:29;;;;;;;4.85;4.43;;;47.90;31.00;;;;;;4824555;29;87882;-84
2022/08/08 10:12:56;;;;;;;5.45;5.05;;;47.60;30.40;;;;;;4832588;29;87076;-86
2022/08/08 10:15:24;;;;;;;5.32;4.90;;;46.70;31.10;;;;;;4830728;29;88239;-81
2022/08/08 10:17:53;;;;;;;4.35;4.00;;;45.00;30.70;;;;;;4833326;29;86965;-81
2022/08/08 10:20:18;;;;;;;5.78;5.28;;;42.20;35.00;;;;;;4828485;29;87408;-84
2022/08/08 10:23:03;;;;;;;5.00;4.57;;;40.60;35.90;;;;;;4829719;29;89588;-84
2022/08/08 10:25:29;;;;;;;3.08;2.78;;;37.10;39.40;;;;;;4827297;29;87137;-81
2022/08/08 10:27:56;;;;;;;3.60;3.30;;;34.50;43.00;;;;;;4829458;29;87145;-81
2022/08/08 10:30:23;;;;;;;2.72;2.50;;;33.20;43.60;;;;;;4820308;29;87036;-81
2022/08/08 10:32:51;;;;;;;2.58;2.22;;;33.20;44.00;;;;;;4826259;29;86944;-80
2022/08/08 10:35:19;;;;;;;2.83;1.65;;;32.40;45.80;;;;;;4821695;29;86881;-80
2022/08/08 10:38:03;;;;;;;2.42;1.60;;;31.20;48.20;;;;;;4823704;29;87062;-81
2022/08/08 10:40:30;;;;;;;3.55;1.50;;;30.40;49.60;;;;;;4826930;29;88525;-81
2022/08/08 10:43:01;;;;;;;2.70;1.85;;;30.00;50.40;;;;;;4829825;29;88240;-80
2022/08/08 10:45:28;;;;;;;2.42;1.55;;;29.90;50.90;;;;;;4830895;29;87016;-80
2022/08/08 10:47:59;;;;;;;3.40;1.77;;;29.20;51.30;;;;;;4832596;29;87050;-80
2022/08/08 10:50:37;;;;;;;2.70;1.15;;;28.40;51.80;;;;;;4829514;29;87323;-80
2022/08/08 10:53:08;;;;;;;3.92;1.48;;;28.20;55.70;;;;;;4825974;29;86979;-79
2022/08/08 10:55:39;;;;;;;1.60;1.10;;;28.10;54.30;;;;;;4822100;29;86968;-80
2022/08/08 10:58:10;;;;;;;2.63;1.00;;;28.30;56.10;;;;;;4817341;29;86874;-82
2022/08/08 11:00:43;;;;;;;2.13;1.10;;;28.60;54.70;;;;;;4822874;29;87592;-79
2022/08/08 11:03:12;;;;;;;2.42;0.77;;;28.60;55.80;;;;;;4820753;29;87728;-83
2022/08/08 11:05:48;;;;;;;4.18;0.93;;;28.90;53.80;;;;;;4823620;29;88604;-81
2022/08/08 11:08:27;;;;;;;2.05;1.17;;;28.90;53.40;;;;;;4827987;29;86876;-83
2022/08/08 11:11:03;;;;;;;3.65;1.20;;;28.80;52.80;;;;;;4829978;29;86933;-80
2022/08/08 11:13:44;;;;;;;1.70;0.73;;;28.60;54.90;;;;;;4820671;29;87842;-82
2022/08/08 11:16:28;;;;;;;2.95;0.70;;;28.20;54.20;;;;;;4829261;29;87343;-81
2022/08/08 11:18:54;;;;;;;2.25;0.93;;;28.60;53.20;;;;;;4827802;29;86936;-82
2022/08/08 11:21:22;;;;;;;3.40;0.60;;;28.70;54.10;;;;;;4825404;29;87018;-80
2022/08/08 11:23:49;;;;;;;1.98;1.23;;;28.40;54.00;;;;;;4829631;29;86291;-80
2022/08/08 11:26:18;;;;;;;7.40;1.35;;;27.70;54.00;;;;;;4829381;29;87368;-79
2022/08/08 11:28:44;;;;;;;;;;;27.90;56.10;;;;;;4830228;29;87028;-80
2022/08/08 11:31:14;;;;;;;2.70;1.13;;;28.40;55.00;;;;;;4819629;29;88732;-80
2022/08/08 11:33:44;;;;;;;4.82;1.45;;;28.50;54.50;;;;;;4825883;29;87144;-81
2022/08/08 11:36:10;;;;;;;2.28;0.68;;;28.30;53.00;;;;;;4830130;29;88033;-81
2022/08/08 11:38:36;;;;;;;3.00;1.00;;;28.00;56.10;;;;;;4826828;29;86890;-80
2022/08/08 11:41:03;;;;;;;3.20;1.38;;;28.10;55.70;;;;;;4831899;29;86799;-80
2022/08/08 11:43:31;;;;;;;1.63;1.02;;;28.10;54.70;;;;;;4838291;29;87883;-80
2022/08/08 11:45:57;;;;;;;2.63;0.93;;;28.20;55.70;;;;;;4825624;29;87508;-80
2022/08/08 11:48:23;;;;;;;2.10;0.85;;;28.20;55.50;;;;;;4836523;29;86375;-80
2022/08/08 11:50:50;;;;;;;1.70;0.93;;;27.80;56.20;;;;;;4834377;29;87347;-79
2022/08/08 11:53:17;;;;;;;2.15;0.75;;;27.50;57.90;;;;;;4834835;29;87074;-80
2022/08/08 11:55:50;;;;;;;1.70;0.82;;;27.40;55.70;;;;;;4830630;29;87797;-79
2022/08/08 11:58:17;;;;;;;8.95;1.27;;;27.60;56.00;;;;;;4832513;29;87409;-79
2022/08/08 12:00:55;;;;;;;3.63;0.90;;;27.70;56.00;;;;;;4825487;29;87545;-79
2022/08/08 12:03:23;;;;;;;2.20;0.73;;;27.60;55.90;;;;;;4830867;29;87138;-80
2022/08/08 12:05:50;;;;;;;1.92;1.05;;;27.60;55.80;;;;;;4835138;29;87063;-81
2022/08/08 12:08:28;;;;;;;1.45;0.70;;;27.90;56.00;;;;;;4832297;29;87048;-80
2022/08/08 12:11:02;;;;;;;1.38;1.10;;;28.10;53.60;;;;;;4828023;29;87042;-82
2022/08/08 12:13:28;;;;;;;2.38;1.17;;;28.00;54.10;;;;;;4824300;29;87352;-79
2022/08/08 12:16:06;;;;;;;1.60;0.52;;;28.00;54.40;;;;;;4844929;29;86911;-78
2022/08/08 12:18:52;;;;;;;2.03;0.65;;;28.30;54.50;;;;;;4848029;29;86970;-78
2022/08/08 12:21:26;;;;;;;3.00;0.80;;;28.40;53.10;;;;;;4829659;29;88635;-78
2022/08/08 12:24:10;;;;;;;2.70;1.30;;;28.50;53.70;;;;;;4829655;29;87212;-78
2022/08/08 12:26:41;;;;;;;2.17;0.70;;;28.10;53.60;;;;;;4829231;29;87123;-77
2022/08/08 12:29:36;;;;;;;1.58;0.80;;;27.80;54.90;;;;;;4847467;29;86846;-85
2022/08/08 12:32:05;;;;;;;1.38;0.70;;;28.00;54.10;;;;;;4825134;29;88172;-78
2022/08/08 12:34:45;;;;;;;;;;;28.10;54.70;;;;;;4828990;29;87359;-78
2022/08/08 12:37:21;;;;;;;2.20;0.70;;;28.20;53.40;;;;;;4837726;29;86388;-78
2022/08/08 12:39:47;;;;;;;2.38;0.70;;;27.70;55.20;;;;;;4841637;29;86310;-78
2022/08/08 12:42:13;;;;;;;1.95;0.90;;;27.40;55.10;;;;;;4833339;29;87295;-79
2022/08/08 12:44:41;;;;;;;3.25;0.70;;;27.10;57.00;;;;;;4840764;29;87378;-81
2022/08/08 12:47:07;;;;;;;3.05;0.73;;;27.30;56.90;;;;;;4830791;29;88016;-78
2022/08/08 12:49:35;;;;;;;1.45;0.73;;;27.20;57.00;;;;;;4832213;29;86960;-79
2022/08/08 12:52:02;;;;;;;1.25;0.75;;;27.30;57.60;;;;;;4843786;29;87289;-78
2022/08/08 12:54:35;;;;;;;2.92;0.70;;;27.50;54.10;;;;;;4847021;29;86931;-77
2022/08/08 12:57:20;;;;;;;3.78;0.70;;;27.70;54.70;;;;;;4831370;29;86983;-77
2022/08/08 12:59:51;;;;;;;1.95;0.70;;;27.90;56.40;;;;;;4848369;29;86940;-80
2022/08/08 13:02:24;;;;;;;2.50;0.57;;;27.70;56.20;;;;;;4833376;29;87385;-78
2022/08/08 13:04:52;;;;;;;3.25;0.63;;;27.80;55.50;;;;;;4831795;29;86493;-78
2022/08/08 13:07:18;;;;;;;4.32;0.75;;;27.90;55.60;;;;;;4831402;29;86411;-77
2022/08/08 13:10:19;;;;;;;1.92;1.13;;;27.90;54.40;;;;;;4832561;29;86940;-78
2022/08/08 13:12:47;;;;;;;1.73;0.70;;;28.00;53.50;;;;;;4843356;29;88197;-80
2022/08/08 13:15:17;;;;;;;1.52;0.82;;;27.90;54.90;;;;;;4836681;29;87692;-77
2022/08/08 13:17:43;;;;;;;3.30;0.80;;;27.90;52.40;;;;;;4828941;29;86893;-77
2022/08/08 13:20:14;;;;;;;1.42;0.85;;;27.90;51.70;;;;;;4813166;29;86476;-81
2022/08/08 13:22:42;;;;;;;2.25;0.60;;;27.60;52.30;;;;;;4829894;29;87594;-76
2022/08/08 13:25:19;;;;;;;4.05;1.35;;;27.80;53.90;;;;;;4835248;29;87795;-78
2022/08/08 13:27:53;;;;;;;2.15;0.80;;;27.80;54.50;;;;;;4822884;29;86634;-79
2022/08/08 13:30:24;;;;;;;2.53;1.05;;;27.90;53.30;;;;;;4836039;29;86205;-79
2022/08/08 13:32:58;;;;;;;1.40;0.95;;;27.90;53.50;;;;;;4829937;29;88092;-79
2022/08/08 13:35:24;;;;;;;6.78;0.75;;;27.80;51.90;;;;;;4828774;29;87023;-78
2022/08/08 13:37:50;;;;;;;2.40;0.90;;;27.90;54.80;;;;;;4834509;29;87789;-81
2022/08/08 13:40:17;;;;;;;3.25;0.68;;;27.80;54.10;;;;;;4844328;29;87096;-79
2022/08/08 13:42:43;;;;;;;4.57;0.75;;;27.80;53.70;;;;;;4839911;29;87247;-78
2022/08/08 13:45:11;;;;;;;2.92;0.65;;;27.80;53.80;;;;;;4838132;29;86937;-78
2022/08/08 13:47:39;;;;;;;2.15;1.27;;;27.90;52.20;;;;;;4833499;29;87318;-78
2022/08/08 13:50:06;;;;;;;1.65;0.90;;;27.80;52.00;;;;;;4842978;29;86871;-79
2022/08/08 13:52:32;;;;;;;1.73;0.57;;;27.80;54.10;;;;;;4835188;29;89015;-77
2022/08/08 13:55:02;;;;;;;1.75;1.00;;;27.70;54.70;;;;;;4844761;29;86946;-78
2022/08/08 13:57:33;;;;;;;3.20;1.00;;;27.60;55.10;;;;;;4830954;29;87000;-77
2022/08/08 14:00:10;;;;;;;1.75;0.70;;;27.70;54.00;;;;;;4845299;29;86902;-79
2022/08/08 14:02:36;;;;;;;1.40;0.77;;;27.80;51.40;;;;;;4829606;29;90678;-78
2022/08/08 14:05:06;;;;;;;2.30;0.70;;;27.80;54.10;;;;;;4829658;29;89256;-77
2022/08/08 14:07:34;;;;;;;1.52;1.00;;;27.80;55.70;;;;;;4829185;29;86974;-77
2022/08/08 14:10:10;;;;;;;3.30;0.88;;;27.70;53.60;;;;;;4838437;29;87022;-79
2022/08/08 14:12:38;;;;;;;1.65;0.95;;;27.60;54.80;;;;;;4833740;29;87262;-78
2022/08/08 14:15:08;;;;;;;4.80;0.90;;;27.60;52.00;;;;;;4836095;29;87944;-80
2022/08/08 14:17:34;;;;;;;1.83;0.57;;;27.50;53.70;;;;;;4829281;29;87344;-78
2022/08/08 14:20:08;;;;;;;4.30;0.80;;;27.50;54.30;;;;;;4837569;29;86284;-77
2022/08/08 14:22:39;;;;;;;1.58;0.75;;;27.50;51.60;;;;;;4830395;29;87019;-77
2022/08/08 14:25:10;;;;;;;2.05;0.70;;;27.60;51.50;;;;;;4829270;29;87052;-78
2022/08/08 14:27:38;;;;;;;2.33;0.57;;;27.60;53.00;;;;;;4820638;29;87528;-78
2022/08/08 14:30:15;;;;;;;5.20;0.80;;;27.50;52.40;;;;;;4820257;29;87119;-78
2022/08/08 14:32:51;;;;;;;1.38;0.60;;;27.50;52.60;;;;;;4826063;29;87402;-78
2022/08/08 14:35:21;;;;;;;1.52;0.63;;;27.50;53.10;;;;;;4838543;29;87020;-78
2022/08/08 14:37:49;;;;;;;2.00;0.63;;;27.60;52.90;;;;;;4832100;29;86933;-79
2022/08/08 14:40:27;;;;;;;3.17;0.50;;;27.60;52.10;;;;;;4830829;29;87055;-79
2022/08/08 14:42:54;;;;;;;1.25;0.50;;;27.60;51.40;;;;;;4824980;29;86912;-80
2022/08/08 14:45:23;;;;;;;2.55;0.70;;;27.50;50.70;;;;;;4830508;29;86975;-77
2022/08/08 14:48:01;;;;;;;6.18;1.15;;;27.50;51.40;;;;;;4829542;29;87028;-78
2022/08/08 14:50:29;;;;;;;5.95;0.85;;;27.40;52.00;;;;;;4829687;29;86890;-78
2022/08/08 14:53:04;;;;;;;3.15;0.98;;;27.60;53.70;;;;;;4825402;29;89058;-78
2022/08/08 14:55:33;;;;;;;1.58;0.68;;;27.40;51.90;;;;;;4830606;29;88298;-78
2022/08/08 14:57:58;;;;;;;;;;;27.40;52.40;;;;;;4828012;29;87216;-78
2022/08/08 15:00:26;;;;;;;2.75;0.88;;;27.50;52.30;;;;;;4825910;29;87090;-87
2022/08/08 15:02:55;;;;;;;1.42;0.82;;;27.50;53.50;;;;;;4827705;29;88113;-77
2022/08/08 15:05:22;;;;;;;1.52;0.60;;;27.40;52.10;;;;;;4827692;29;86897;-79
2022/08/08 15:07:49;;;;;;;2.72;0.73;;;27.50;53.90;;;;;;4827863;29;87070;-78
2022/08/08 15:10:16;;;;;;;7.35;0.93;;;27.50;53.20;;;;;;4829316;29;86175;-78
2022/08/08 15:12:43;;;;;;;4.30;0.65;;;27.50;53.40;;;;;;4826887;29;87767;-79
2022/08/08 15:15:12;;;;;;;3.25;0.70;;;27.50;52.50;;;;;;4825018;29;87374;-80
2022/08/08 15:17:41;;;;;;;2.30;1.27;;;27.50;53.00;;;;;;4822122;29;88014;-79
2022/08/08 15:20:12;;;;;;;3.75;1.20;;;27.40;52.90;;;;;;4827176;29;87091;-81
2022/08/08 15:22:39;;;;;;;8.63;0.90;;;27.40;52.90;;;;;;4816956;29;87420;-80
2022/08/08 15:25:07;;;;;;;4.22;0.90;;;27.30;52.10;;;;;;4826911;29;87431;-79
2022/08/08 15:27:34;;;;;;;2.10;0.90;;;27.30;53.60;;;;;;4829799;29;87179;-80
2022/08/08 15:30:00;;;;;;;2.15;0.82;;;27.30;52.10;;;;;;4822530;29;87481;-81
2022/08/08 15:32:26;;;;;;;3.22;0.82;;;27.50;52.50;;;;;;4820645;29;87506;-79
2022/08/08 15:34:58;;;;;;;1.35;0.65;;;27.30;52.10;;;;;;4820716;29;86905;-78
2022/08/08 15:37:25;;;;;;;2.28;0.90;;;27.40;51.80;;;;;;4816381;29;86786;-80
2022/08/08 15:39:51;;;;;;;1.75;0.88;;;27.30;52.20;;;;;;4821137;29;87130;-81
2022/08/08 15:42:18;;;;;;;1.77;0.50;;;27.30;54.10;;;;;;4817915;29;88799;-80
2022/08/08 15:44:44;;;;;;;2.58;0.77;;;27.20;55.00;;;;;;4817567;29;88833;-84
2022/08/08 15:47:13;;;;;;;1.92;0.93;;;27.20;54.80;;;;;;4816706;29;87076;-79
2022/08/08 15:49:43;;;;;;;1.45;0.85;;;27.30;53.20;;;;;;4824904;29;86998;-78
2022/08/08 15:52:11;;;;;;;1.50;0.43;;;27.30;53.50;;;;;;4824591;29;88678;-78
2022/08/08 15:54:38;;;;;;;2.10;0.88;;;27.20;52.80;;;;;;4825448;29;87908;-80